sensor_id;sensor_type;location;lat;lon;timestamp;P1;durP1;ratioP1;P2;durP2;ratioP2
62941;SDS011;49042;47.318;19.874;2022-08-03T00:01:29;7.37;;;4.68;;
62941;SDS011;49042;47.318;19.874;2022-08-03T00:04:31;4.90;;;4.30;;
62941;SDS011;49042;47.318;19.874;2022-08-03T00:07:34;6.22;;;4.22;;
62941;SDS011;49042;47.318;19.874;2022-08-03T00:10:36;9.13;;;4.37;;
62941;SDS011;49042;47.318;19.874;2022-08-03T00:13:38;6.80;;;4.60;;
62941;SDS011;49042;47.318;19.874;2022-08-03T00:16:40;6.03;;;4.72;;
62941;SDS011;49042;47.318;19.874;2022-08-03T00:19:42;8.10;;;4.57;;
62941;SDS011;49042;47.318;19.874;2022-08-03T00:22:44;6.50;;;5.00;;
62941;SDS011;49042;47.318;19.874;2022-08-03T00:25:45;6.07;;;4.47;;
62941;SDS011;49042;47.318;19.874;2022-08-03T00:28:48;5.68;;;4.28;;
62941;SDS011;49042;47.318;19.874;2022-08-03T00:31:50;6.05;;;4.45;;
62941;SDS011;49042;47.318;19.874;2022-08-03T00:35:00;6.15;;;4.60;;
62941;SDS011;49042;47.318;19.874;2022-08-03T00:38:08;6.00;;;4.50;;
62941;SDS011;49042;47.318;19.874;2022-08-03T00:41:10;6.32;;;4.22;;
62941;SDS011;49042;47.318;19.874;2022-08-03T00:44:16;5.55;;;4.53;;
62941;SDS011;49042;47.318;19.874;2022-08-03T00:47:17;4.90;;;4.00;;
62941;SDS011;49042;47.318;19.874;2022-08-03T00:50:20;4.80;;;4.10;;
62941;SDS011;49042;47.318;19.874;2022-08-03T00:53:23;7.60;;;4.72;;
62941;SDS011;49042;47.318;19.874;2022-08-03T00:56:27;5.10;;;4.50;;
62941;SDS011;49042;47.318;19.874;2022-08-03T00:59:29;5.75;;;4.35;;
62941;SDS011;49042;47.318;19.874;2022-08-03T01:02:31;4.72;;;4.07;;
62941;SDS011;49042;47.318;19.874;2022-08-03T01:05:37;7.65;;;4.50;;
62941;SDS011;49042;47.318;19.874;2022-08-03T01:15:07;5.78;;;4.47;;
62941;SDS011;49042;47.318;19.874;2022-08-03T01:18:18;6.62;;;4.12;;
62941;SDS011;49042;47.318;19.874;2022-08-03T01:21:25;6.80;;;4.30;;
62941;SDS011;49042;47.318;19.874;2022-08-03T01:31:54;5.53;;;4.47;;
62941;SDS011;49042;47.318;19.874;2022-08-03T01:35:21;4.90;;;4.50;;
62941;SDS011;49042;47.318;19.874;2022-08-03T01:38:33;6.68;;;4.68;;
62941;SDS011;49042;47.318;19.874;2022-08-03T01:41:41;6.43;;;5.15;;
62941;SDS011;49042;47.318;19.874;2022-08-03T01:44:49;5.20;;;4.68;;
62941;SDS011;49042;47.318;19.874;2022-08-03T01:47:53;4.80;;;4.30;;
62941;SDS011;49042;47.318;19.874;2022-08-03T01:50:57;7.12;;;5.20;;
62941;SDS011;49042;47.318;19.874;2022-08-03T01:54:01;5.75;;;5.18;;
62941;SDS011;49042;47.318;19.874;2022-08-03T01:57:05;7.87;;;4.95;;
62941;SDS011;49042;47.318;19.874;2022-08-03T02:00:10;6.20;;;4.70;;
62941;SDS011;49042;47.318;19.874;2022-08-03T02:03:14;5.85;;;5.20;;
62941;SDS011;49042;47.318;19.874;2022-08-03T02:06:18;6.55;;;4.97;;
62941;SDS011;49042;47.318;19.874;2022-08-03T02:09:43;8.68;;;5.50;;
62941;SDS011;49042;47.318;19.874;2022-08-03T02:12:50;7.18;;;5.15;;
62941;SDS011;49042;47.318;19.874;2022-08-03T02:15:54;6.90;;;4.97;;
62941;SDS011;49042;47.318;19.874;2022-08-03T02:18:58;7.95;;;5.07;;
62941;SDS011;49042;47.318;19.874;2022-08-03T02:22:07;6.57;;;5.00;;
62941;SDS011;49042;47.318;19.874;2022-08-03T02:25:13;5.12;;;4.62;;
62941;SDS011;49042;47.318;19.874;2022-08-03T02:28:17;5.35;;;4.47;;
62941;SDS011;49042;47.318;19.874;2022-08-03T02:31:22;5.90;;;4.57;;
62941;SDS011;49042;47.318;19.874;2022-08-03T02:34:29;9.75;;;5.25;;
62941;SDS011;49042;47.318;19.874;2022-08-03T02:37:36;6.57;;;4.95;;
62941;SDS011;49042;47.318;19.874;2022-08-03T02:40:50;8.55;;;4.62;;
62941;SDS011;49042;47.318;19.874;2022-08-03T02:43:56;7.15;;;5.18;;
62941;SDS011;49042;47.318;19.874;2022-08-03T02:47:08;7.45;;;5.03;;
62941;SDS011;49042;47.318;19.874;2022-08-03T02:50:13;5.57;;;4.93;;
62941;SDS011;49042;47.318;19.874;2022-08-03T02:53:17;8.38;;;5.15;;
62941;SDS011;49042;47.318;19.874;2022-08-03T02:56:21;9.07;;;5.10;;
62941;SDS011;49042;47.318;19.874;2022-08-03T02:59:26;7.93;;;5.72;;
62941;SDS011;49042;47.318;19.874;2022-08-03T03:02:31;10.00;;;5.70;;
62941;SDS011;49042;47.318;19.874;2022-08-03T03:05:35;8.45;;;5.37;;
62941;SDS011;49042;47.318;19.874;2022-08-03T03:08:56;15.68;;;5.82;;
62941;SDS011;49042;47.318;19.874;2022-08-03T03:12:00;10.73;;;5.95;;
62941;SDS011;49042;47.318;19.874;2022-08-03T03:15:06;11.23;;;5.53;;
62941;SDS011;49042;47.318;19.874;2022-08-03T03:18:08;9.25;;;5.80;;
62941;SDS011;49042;47.318;19.874;2022-08-03T03:21:11;8.85;;;6.05;;
62941;SDS011;49042;47.318;19.874;2022-08-03T03:24:18;10.18;;;6.30;;
62941;SDS011;49042;47.318;19.874;2022-08-03T03:27:21;8.18;;;5.93;;
62941;SDS011;49042;47.318;19.874;2022-08-03T03:30:24;7.43;;;5.78;;
62941;SDS011;49042;47.318;19.874;2022-08-03T03:33:26;7.93;;;5.35;;
62941;SDS011;49042;47.318;19.874;2022-08-03T03:36:29;9.82;;;5.90;;
62941;SDS011;49042;47.318;19.874;2022-08-03T03:39:30;13.55;;;6.00;;
62941;SDS011;49042;47.318;19.874;2022-08-03T03:42:32;16.65;;;6.72;;
62941;SDS011;49042;47.318;19.874;2022-08-03T03:45:35;11.15;;;5.85;;
62941;SDS011;49042;47.318;19.874;2022-08-03T03:48:37;8.55;;;6.30;;
62941;SDS011;49042;47.318;19.874;2022-08-03T03:51:41;12.43;;;6.20;;
62941;SDS011;49042;47.318;19.874;2022-08-03T03:54:44;8.35;;;6.25;;
62941;SDS011;49042;47.318;19.874;2022-08-03T03:57:45;12.52;;;7.40;;
62941;SDS011;49042;47.318;19.874;2022-08-03T04:00:47;7.95;;;6.47;;
62941;SDS011;49042;47.318;19.874;2022-08-03T04:03:50;10.80;;;7.20;;
62941;SDS011;49042;47.318;19.874;2022-08-03T04:06:52;7.40;;;6.20;;
62941;SDS011;49042;47.318;19.874;2022-08-03T04:10:22;7.15;;;6.28;;
62941;SDS011;49042;47.318;19.874;2022-08-03T04:13:57;9.88;;;6.57;;
62941;SDS011;49042;47.318;19.874;2022-08-03T04:17:03;8.93;;;6.50;;
62941;SDS011;49042;47.318;19.874;2022-08-03T04:20:07;8.10;;;6.10;;
62941;SDS011;49042;47.318;19.874;2022-08-03T04:23:11;7.97;;;6.62;;
62941;SDS011;49042;47.318;19.874;2022-08-03T04:26:18;8.50;;;6.78;;
62941;SDS011;49042;47.318;19.874;2022-08-03T04:29:21;11.20;;;7.25;;
62941;SDS011;49042;47.318;19.874;2022-08-03T04:32:26;7.37;;;6.40;;
62941;SDS011;49042;47.318;19.874;2022-08-03T04:35:31;13.40;;;7.05;;
62941;SDS011;49042;47.318;19.874;2022-08-03T04:38:59;8.30;;;7.05;;
62941;SDS011;49042;47.318;19.874;2022-08-03T04:42:08;10.73;;;7.55;;
62941;SDS011;49042;47.318;19.874;2022-08-03T04:45:13;10.65;;;7.05;;
62941;SDS011;49042;47.318;19.874;2022-08-03T04:48:16;11.73;;;7.47;;
62941;SDS011;49042;47.318;19.874;2022-08-03T04:51:20;8.30;;;6.68;;
62941;SDS011;49042;47.318;19.874;2022-08-03T04:54:22;11.35;;;6.65;;
62941;SDS011;49042;47.318;19.874;2022-08-03T04:57:24;10.00;;;6.95;;
62941;SDS011;49042;47.318;19.874;2022-08-03T05:00:26;8.43;;;7.10;;
62941;SDS011;49042;47.318;19.874;2022-08-03T05:03:28;8.50;;;7.20;;
62941;SDS011;49042;47.318;19.874;2022-08-03T05:06:32;11.30;;;7.35;;
62941;SDS011;49042;47.318;19.874;2022-08-03T05:09:35;9.88;;;7.47;;
62941;SDS011;49042;47.318;19.874;2022-08-03T05:12:52;13.05;;;7.28;;
62941;SDS011;49042;47.318;19.874;2022-08-03T05:15:54;11.10;;;7.62;;
62941;SDS011;49042;47.318;19.874;2022-08-03T05:18:56;9.23;;;7.68;;
62941;SDS011;49042;47.318;19.874;2022-08-03T05:21:58;9.23;;;7.87;;
62941;SDS011;49042;47.318;19.874;2022-08-03T05:25:00;14.55;;;8.02;;
62941;SDS011;49042;47.318;19.874;2022-08-03T05:28:02;14.32;;;7.80;;
62941;SDS011;49042;47.318;19.874;2022-08-03T05:31:04;10.25;;;8.48;;
62941;SDS011;49042;47.318;19.874;2022-08-03T05:34:06;10.55;;;8.48;;
62941;SDS011;49042;47.318;19.874;2022-08-03T05:37:08;12.85;;;8.40;;
62941;SDS011;49042;47.318;19.874;2022-08-03T05:40:10;12.37;;;7.72;;
62941;SDS011;49042;47.318;19.874;2022-08-03T05:43:13;9.68;;;8.05;;
62941;SDS011;49042;47.318;19.874;2022-08-03T05:46:14;12.73;;;8.70;;
62941;SDS011;49042;47.318;19.874;2022-08-03T05:49:17;18.12;;;7.85;;
62941;SDS011;49042;47.318;19.874;2022-08-03T05:52:19;10.75;;;8.30;;
62941;SDS011;49042;47.318;19.874;2022-08-03T05:55:22;11.50;;;8.77;;
62941;SDS011;49042;47.318;19.874;2022-08-03T05:58:24;12.30;;;7.03;;
62941;SDS011;49042;47.318;19.874;2022-08-03T06:01:30;11.07;;;7.95;;
62941;SDS011;49042;47.318;19.874;2022-08-03T06:04:33;12.37;;;7.85;;
62941;SDS011;49042;47.318;19.874;2022-08-03T06:07:35;13.95;;;8.70;;
62941;SDS011;49042;47.318;19.874;2022-08-03T06:10:37;12.40;;;7.10;;
62941;SDS011;49042;47.318;19.874;2022-08-03T06:13:39;11.68;;;8.35;;
62941;SDS011;49042;47.318;19.874;2022-08-03T06:16:41;12.88;;;6.97;;
62941;SDS011;49042;47.318;19.874;2022-08-03T06:19:43;9.30;;;7.45;;
62941;SDS011;49042;47.318;19.874;2022-08-03T06:22:48;10.15;;;7.32;;
62941;SDS011;49042;47.318;19.874;2022-08-03T06:26:00;7.62;;;6.30;;
62941;SDS011;49042;47.318;19.874;2022-08-03T06:29:02;10.00;;;7.35;;
62941;SDS011;49042;47.318;19.874;2022-08-03T06:32:04;9.90;;;6.80;;
62941;SDS011;49042;47.318;19.874;2022-08-03T06:35:07;12.60;;;7.53;;
62941;SDS011;49042;47.318;19.874;2022-08-03T06:38:10;8.48;;;6.72;;
62941;SDS011;49042;47.318;19.874;2022-08-03T06:41:13;10.63;;;7.37;;
62941;SDS011;49042;47.318;19.874;2022-08-03T06:44:15;11.07;;;7.15;;
62941;SDS011;49042;47.318;19.874;2022-08-03T06:47:16;10.85;;;6.87;;
62941;SDS011;49042;47.318;19.874;2022-08-03T06:50:18;8.05;;;6.40;;
62941;SDS011;49042;47.318;19.874;2022-08-03T06:53:26;7.97;;;6.70;;
62941;SDS011;49042;47.318;19.874;2022-08-03T06:56:28;12.35;;;6.62;;
62941;SDS011;49042;47.318;19.874;2022-08-03T06:59:30;17.17;;;6.60;;
62941;SDS011;49042;47.318;19.874;2022-08-03T07:02:52;8.02;;;5.90;;
62941;SDS011;49042;47.318;19.874;2022-08-03T07:09:00;8.18;;;6.22;;
62941;SDS011;49042;47.318;19.874;2022-08-03T07:12:03;11.77;;;5.75;;
62941;SDS011;49042;47.318;19.874;2022-08-03T07:15:06;8.52;;;5.68;;
62941;SDS011;49042;47.318;19.874;2022-08-03T07:18:20;9.90;;;5.57;;
62941;SDS011;49042;47.318;19.874;2022-08-03T07:21:30;6.75;;;5.87;;
62941;SDS011;49042;47.318;19.874;2022-08-03T07:24:32;6.45;;;5.75;;
62941;SDS011;49042;47.318;19.874;2022-08-03T07:27:34;10.73;;;5.55;;
62941;SDS011;49042;47.318;19.874;2022-08-03T07:30:36;5.55;;;4.35;;
62941;SDS011;49042;47.318;19.874;2022-08-03T07:46:32;8.35;;;5.15;;
62941;SDS011;49042;47.318;19.874;2022-08-03T07:49:37;5.50;;;4.72;;
62941;SDS011;49042;47.318;19.874;2022-08-03T07:52:40;11.98;;;4.95;;
62941;SDS011;49042;47.318;19.874;2022-08-03T07:55:53;8.43;;;5.30;;
62941;SDS011;49042;47.318;19.874;2022-08-03T07:58:55;12.45;;;5.87;;
62941;SDS011;49042;47.318;19.874;2022-08-03T08:02:16;7.75;;;5.10;;
62941;SDS011;49042;47.318;19.874;2022-08-03T08:05:18;7.05;;;4.97;;
62941;SDS011;49042;47.318;19.874;2022-08-03T08:08:20;6.10;;;5.12;;
62941;SDS011;49042;47.318;19.874;2022-08-03T08:11:22;10.52;;;5.75;;
62941;SDS011;49042;47.318;19.874;2022-08-03T08:14:24;8.75;;;5.10;;
62941;SDS011;49042;47.318;19.874;2022-08-03T08:17:25;6.97;;;5.70;;
62941;SDS011;49042;47.318;19.874;2022-08-03T08:20:31;6.93;;;5.30;;
62941;SDS011;49042;47.318;19.874;2022-08-03T08:23:38;6.53;;;5.30;;
62941;SDS011;49042;47.318;19.874;2022-08-03T08:26:44;8.85;;;5.12;;
62941;SDS011;49042;47.318;19.874;2022-08-03T08:29:46;14.15;;;5.12;;
62941;SDS011;49042;47.318;19.874;2022-08-03T08:32:55;9.18;;;5.10;;
62941;SDS011;49042;47.318;19.874;2022-08-03T08:35:58;8.02;;;4.93;;
62941;SDS011;49042;47.318;19.874;2022-08-03T08:39:00;9.25;;;4.40;;
62941;SDS011;49042;47.318;19.874;2022-08-03T08:42:02;6.12;;;4.80;;
62941;SDS011;49042;47.318;19.874;2022-08-03T08:45:04;9.38;;;5.45;;
62941;SDS011;49042;47.318;19.874;2022-08-03T08:48:08;5.00;;;4.35;;
62941;SDS011;49042;47.318;19.874;2022-08-03T08:51:11;5.07;;;4.22;;
62941;SDS011;49042;47.318;19.874;2022-08-03T08:54:13;4.65;;;4.10;;
62941;SDS011;49042;47.318;19.874;2022-08-03T08:57:16;10.35;;;4.10;;
62941;SDS011;49042;47.318;19.874;2022-08-03T09:00:40;8.90;;;4.20;;
62941;SDS011;49042;47.318;19.874;2022-08-03T09:03:42;6.37;;;4.20;;
62941;SDS011;49042;47.318;19.874;2022-08-03T09:06:44;7.80;;;3.60;;
62941;SDS011;49042;47.318;19.874;2022-08-03T09:10:06;7.95;;;4.12;;
62941;SDS011;49042;47.318;19.874;2022-08-03T09:13:13;6.25;;;3.60;;
62941;SDS011;49042;47.318;19.874;2022-08-03T09:16:17;4.40;;;3.83;;
62941;SDS011;49042;47.318;19.874;2022-08-03T09:19:20;5.25;;;3.60;;
62941;SDS011;49042;47.318;19.874;2022-08-03T09:22:22;4.68;;;3.58;;
62941;SDS011;49042;47.318;19.874;2022-08-03T09:25:30;4.28;;;3.47;;
62941;SDS011;49042;47.318;19.874;2022-08-03T09:31:58;10.18;;;3.22;;
62941;SDS011;49042;47.318;19.874;2022-08-03T09:35:02;5.62;;;3.50;;
62941;SDS011;49042;47.318;19.874;2022-08-03T09:38:11;6.00;;;3.60;;
62941;SDS011;49042;47.318;19.874;2022-08-03T09:41:17;6.32;;;3.20;;
62941;SDS011;49042;47.318;19.874;2022-08-03T09:44:19;6.97;;;3.23;;
62941;SDS011;49042;47.318;19.874;2022-08-03T09:47:35;6.65;;;3.05;;
62941;SDS011;49042;47.318;19.874;2022-08-03T09:50:51;3.05;;;2.83;;
62941;SDS011;49042;47.318;19.874;2022-08-03T09:54:12;5.80;;;3.20;;
62941;SDS011;49042;47.318;19.874;2022-08-03T09:57:26;4.72;;;3.10;;
62941;SDS011;49042;47.318;19.874;2022-08-03T10:00:31;7.35;;;3.10;;
62941;SDS011;49042;47.318;19.874;2022-08-03T10:03:34;7.00;;;2.65;;
62941;SDS011;49042;47.318;19.874;2022-08-03T10:10:04;5.35;;;2.90;;
62941;SDS011;49042;47.318;19.874;2022-08-03T10:13:27;5.87;;;2.80;;
62941;SDS011;49042;47.318;19.874;2022-08-03T10:16:33;7.15;;;2.75;;
62941;SDS011;49042;47.318;19.874;2022-08-03T10:19:36;2.87;;;2.67;;
62941;SDS011;49042;47.318;19.874;2022-08-03T10:22:38;7.72;;;2.67;;
62941;SDS011;49042;47.318;19.874;2022-08-03T10:25:41;4.90;;;2.72;;
62941;SDS011;49042;47.318;19.874;2022-08-03T10:28:47;13.38;;;2.75;;
62941;SDS011;49042;47.318;19.874;2022-08-03T10:31:51;2.92;;;2.45;;
62941;SDS011;49042;47.318;19.874;2022-08-03T10:35:03;4.57;;;2.80;;
62941;SDS011;49042;47.318;19.874;2022-08-03T10:38:23;3.72;;;2.50;;
62941;SDS011;49042;47.318;19.874;2022-08-03T10:41:36;7.93;;;3.10;;
62941;SDS011;49042;47.318;19.874;2022-08-03T10:44:43;3.95;;;2.72;;
62941;SDS011;49042;47.318;19.874;2022-08-03T10:47:47;3.80;;;2.60;;
62941;SDS011;49042;47.318;19.874;2022-08-03T10:50:51;7.90;;;2.80;;
62941;SDS011;49042;47.318;19.874;2022-08-03T10:53:54;7.20;;;2.92;;
62941;SDS011;49042;47.318;19.874;2022-08-03T10:56:56;11.50;;;2.72;;
62941;SDS011;49042;47.318;19.874;2022-08-03T11:00:19;10.68;;;3.15;;
62941;SDS011;49042;47.318;19.874;2022-08-03T11:03:22;4.40;;;3.00;;
62941;SDS011;49042;47.318;19.874;2022-08-03T11:06:24;6.62;;;3.05;;
62941;SDS011;49042;47.318;19.874;2022-08-03T11:09:41;8.15;;;2.95;;
62941;SDS011;49042;47.318;19.874;2022-08-03T11:12:44;3.72;;;2.80;;
62941;SDS011;49042;47.318;19.874;2022-08-03T11:15:49;7.18;;;2.90;;
62941;SDS011;49042;47.318;19.874;2022-08-03T11:19:04;5.78;;;3.08;;
62941;SDS011;49042;47.318;19.874;2022-08-03T11:22:08;3.97;;;2.90;;
62941;SDS011;49042;47.318;19.874;2022-08-03T11:25:13;3.55;;;2.65;;
62941;SDS011;49042;47.318;19.874;2022-08-03T11:28:36;4.10;;;2.65;;
62941;SDS011;49042;47.318;19.874;2022-08-03T11:31:42;5.05;;;2.70;;
62941;SDS011;49042;47.318;19.874;2022-08-03T11:35:10;2.95;;;2.40;;
62941;SDS011;49042;47.318;19.874;2022-08-03T11:38:15;6.22;;;2.90;;
62941;SDS011;49042;47.318;19.874;2022-08-03T11:41:32;4.70;;;2.70;;
62941;SDS011;49042;47.318;19.874;2022-08-03T11:44:45;7.12;;;2.92;;
62941;SDS011;49042;47.318;19.874;2022-08-03T11:47:47;5.72;;;3.10;;
62941;SDS011;49042;47.318;19.874;2022-08-03T11:50:52;6.97;;;3.25;;
62941;SDS011;49042;47.318;19.874;2022-08-03T11:53:55;4.00;;;2.83;;
62941;SDS011;49042;47.318;19.874;2022-08-03T11:57:05;4.45;;;2.78;;
62941;SDS011;49042;47.318;19.874;2022-08-03T12:00:28;4.65;;;2.70;;
62941;SDS011;49042;47.318;19.874;2022-08-03T12:03:33;4.00;;;2.90;;
62941;SDS011;49042;47.318;19.874;2022-08-03T12:06:35;3.20;;;2.90;;
62941;SDS011;49042;47.318;19.874;2022-08-03T12:13:11;4.97;;;2.85;;
62941;SDS011;49042;47.318;19.874;2022-08-03T12:16:33;8.63;;;3.00;;
62941;SDS011;49042;47.318;19.874;2022-08-03T12:19:41;4.28;;;2.83;;
62941;SDS011;49042;47.318;19.874;2022-08-03T12:22:44;2.70;;;2.40;;
62941;SDS011;49042;47.318;19.874;2022-08-03T12:25:46;3.97;;;2.70;;
62941;SDS011;49042;47.318;19.874;2022-08-03T12:28:49;4.32;;;2.85;;
62941;SDS011;49042;47.318;19.874;2022-08-03T12:31:51;4.55;;;2.67;;
62941;SDS011;49042;47.318;19.874;2022-08-03T12:34:53;3.83;;;2.55;;
62941;SDS011;49042;47.318;19.874;2022-08-03T12:38:01;2.65;;;2.40;;
62941;SDS011;49042;47.318;19.874;2022-08-03T12:41:05;3.60;;;2.45;;
62941;SDS011;49042;47.318;19.874;2022-08-03T12:44:16;3.17;;;2.33;;
62941;SDS011;49042;47.318;19.874;2022-08-03T12:47:18;2.55;;;2.35;;
62941;SDS011;49042;47.318;19.874;2022-08-03T12:50:33;7.60;;;2.17;;
62941;SDS011;49042;47.318;19.874;2022-08-03T12:53:35;6.22;;;2.40;;
62941;SDS011;49042;47.318;19.874;2022-08-03T12:56:55;3.45;;;2.20;;
62941;SDS011;49042;47.318;19.874;2022-08-03T12:59:58;2.67;;;2.20;;
62941;SDS011;49042;47.318;19.874;2022-08-03T13:03:37;3.70;;;2.10;;
62941;SDS011;49042;47.318;19.874;2022-08-03T13:06:43;10.73;;;2.20;;
62941;SDS011;49042;47.318;19.874;2022-08-03T13:09:48;4.15;;;1.75;;
62941;SDS011;49042;47.318;19.874;2022-08-03T13:12:53;1.80;;;1.70;;
62941;SDS011;49042;47.318;19.874;2022-08-03T13:15:58;2.30;;;1.50;;
62941;SDS011;49042;47.318;19.874;2022-08-03T13:19:00;1.70;;;1.58;;
62941;SDS011;49042;47.318;19.874;2022-08-03T13:25:22;1.40;;;1.30;;
62941;SDS011;49042;47.318;19.874;2022-08-03T13:28:24;2.75;;;1.48;;
62941;SDS011;49042;47.318;19.874;2022-08-03T13:31:26;1.95;;;1.58;;
62941;SDS011;49042;47.318;19.874;2022-08-03T13:34:28;2.95;;;1.67;;
62941;SDS011;49042;47.318;19.874;2022-08-03T13:37:30;2.12;;;1.30;;
62941;SDS011;49042;47.318;19.874;2022-08-03T13:40:32;2.72;;;1.60;;
62941;SDS011;49042;47.318;19.874;2022-08-03T13:43:42;2.12;;;1.67;;
62941;SDS011;49042;47.318;19.874;2022-08-03T13:46:44;5.12;;;1.60;;
62941;SDS011;49042;47.318;19.874;2022-08-03T13:49:46;4.53;;;1.65;;
62941;SDS011;49042;47.318;19.874;2022-08-03T13:53:02;1.60;;;1.50;;
62941;SDS011;49042;47.318;19.874;2022-08-03T13:56:04;4.20;;;1.95;;
62941;SDS011;49042;47.318;19.874;2022-08-03T13:59:06;5.07;;;1.87;;
62941;SDS011;49042;47.318;19.874;2022-08-03T14:02:08;3.47;;;1.70;;
62941;SDS011;49042;47.318;19.874;2022-08-03T14:05:09;2.37;;;1.73;;
62941;SDS011;49042;47.318;19.874;2022-08-03T14:08:11;4.43;;;1.95;;
62941;SDS011;49042;47.318;19.874;2022-08-03T14:11:14;2.60;;;1.60;;
62941;SDS011;49042;47.318;19.874;2022-08-03T14:14:16;4.22;;;1.80;;
62941;SDS011;49042;47.318;19.874;2022-08-03T14:17:18;4.65;;;1.85;;
62941;SDS011;49042;47.318;19.874;2022-08-03T14:20:23;3.08;;;1.60;;
62941;SDS011;49042;47.318;19.874;2022-08-03T14:23:39;3.95;;;2.08;;
62941;SDS011;49042;47.318;19.874;2022-08-03T14:26:41;2.70;;;1.80;;
62941;SDS011;49042;47.318;19.874;2022-08-03T14:29:43;10.43;;;1.77;;
62941;SDS011;49042;47.318;19.874;2022-08-03T14:32:45;8.02;;;2.30;;
62941;SDS011;49042;47.318;19.874;2022-08-03T14:35:47;3.45;;;1.90;;
62941;SDS011;49042;47.318;19.874;2022-08-03T14:38:49;4.47;;;1.80;;
62941;SDS011;49042;47.318;19.874;2022-08-03T14:41:52;4.62;;;1.67;;
62941;SDS011;49042;47.318;19.874;2022-08-03T14:44:54;2.97;;;2.10;;
62941;SDS011;49042;47.318;19.874;2022-08-03T14:48:03;2.42;;;1.80;;
62941;SDS011;49042;47.318;19.874;2022-08-03T14:51:26;3.55;;;1.80;;
62941;SDS011;49042;47.318;19.874;2022-08-03T14:57:33;3.80;;;1.80;;
62941;SDS011;49042;47.318;19.874;2022-08-03T15:00:35;5.22;;;1.70;;
62941;SDS011;49042;47.318;19.874;2022-08-03T15:03:37;2.83;;;1.98;;
62941;SDS011;49042;47.318;19.874;2022-08-03T15:06:39;2.00;;;1.80;;
62941;SDS011;49042;47.318;19.874;2022-08-03T15:09:41;5.65;;;2.60;;
62941;SDS011;49042;47.318;19.874;2022-08-03T15:12:42;6.62;;;1.87;;
62941;SDS011;49042;47.318;19.874;2022-08-03T15:15:44;6.25;;;2.08;;
62941;SDS011;49042;47.318;19.874;2022-08-03T15:18:47;3.67;;;1.98;;
62941;SDS011;49042;47.318;19.874;2022-08-03T15:21:48;6.62;;;2.10;;
62941;SDS011;49042;47.318;19.874;2022-08-03T15:24:51;2.58;;;2.03;;
62941;SDS011;49042;47.318;19.874;2022-08-03T15:27:53;2.33;;;2.00;;
62941;SDS011;49042;47.318;19.874;2022-08-03T15:31:04;4.20;;;1.90;;
62941;SDS011;49042;47.318;19.874;2022-08-03T15:34:07;2.33;;;2.03;;
62941;SDS011;49042;47.318;19.874;2022-08-03T15:37:09;5.68;;;2.20;;
62941;SDS011;49042;47.318;19.874;2022-08-03T15:40:16;8.98;;;1.90;;
62941;SDS011;49042;47.318;19.874;2022-08-03T15:43:19;3.33;;;1.87;;
62941;SDS011;49042;47.318;19.874;2022-08-03T15:46:21;2.15;;;1.80;;
62941;SDS011;49042;47.318;19.874;2022-08-03T15:49:30;8.30;;;2.00;;
62941;SDS011;49042;47.318;19.874;2022-08-03T15:52:34;3.15;;;1.83;;
62941;SDS011;49042;47.318;19.874;2022-08-03T15:55:36;7.47;;;2.22;;
62941;SDS011;49042;47.318;19.874;2022-08-03T15:58:38;3.17;;;1.87;;
62941;SDS011;49042;47.318;19.874;2022-08-03T16:02:00;4.68;;;1.85;;
62941;SDS011;49042;47.318;19.874;2022-08-03T16:05:02;7.93;;;2.10;;
62941;SDS011;49042;47.318;19.874;2022-08-03T16:08:04;3.10;;;2.15;;
62941;SDS011;49042;47.318;19.874;2022-08-03T16:11:11;2.28;;;2.05;;
62941;SDS011;49042;47.318;19.874;2022-08-03T16:14:13;5.07;;;2.30;;
62941;SDS011;49042;47.318;19.874;2022-08-03T16:17:35;2.42;;;1.80;;
62941;SDS011;49042;47.318;19.874;2022-08-03T16:20:38;2.22;;;1.80;;
62941;SDS011;49042;47.318;19.874;2022-08-03T16:23:42;2.33;;;2.03;;
62941;SDS011;49042;47.318;19.874;2022-08-03T16:26:47;2.62;;;1.90;;
62941;SDS011;49042;47.318;19.874;2022-08-03T16:29:49;4.50;;;2.05;;
62941;SDS011;49042;47.318;19.874;2022-08-03T16:32:51;4.05;;;1.90;;
62941;SDS011;49042;47.318;19.874;2022-08-03T16:35:53;3.95;;;2.10;;
62941;SDS011;49042;47.318;19.874;2022-08-03T16:38:54;3.17;;;2.17;;
62941;SDS011;49042;47.318;19.874;2022-08-03T16:41:56;5.82;;;2.35;;
62941;SDS011;49042;47.318;19.874;2022-08-03T16:45:02;4.68;;;2.00;;
62941;SDS011;49042;47.318;19.874;2022-08-03T16:48:05;2.42;;;2.12;;
62941;SDS011;49042;47.318;19.874;2022-08-03T16:51:06;8.02;;;2.00;;
62941;SDS011;49042;47.318;19.874;2022-08-03T16:54:09;4.30;;;2.50;;
62941;SDS011;49042;47.318;19.874;2022-08-03T16:57:14;3.07;;;2.00;;
62941;SDS011;49042;47.318;19.874;2022-08-03T17:00:16;4.93;;;2.03;;
62941;SDS011;49042;47.318;19.874;2022-08-03T17:03:34;6.72;;;2.60;;
62941;SDS011;49042;47.318;19.874;2022-08-03T17:06:59;1.87;;;1.60;;
62941;SDS011;49042;47.318;19.874;2022-08-03T17:10:03;3.15;;;1.83;;
62941;SDS011;49042;47.318;19.874;2022-08-03T17:13:07;5.03;;;2.20;;
62941;SDS011;49042;47.318;19.874;2022-08-03T17:16:09;8.52;;;2.37;;
62941;SDS011;49042;47.318;19.874;2022-08-03T17:19:15;3.60;;;2.20;;
62941;SDS011;49042;47.318;19.874;2022-08-03T17:22:19;2.47;;;2.03;;
62941;SDS011;49042;47.318;19.874;2022-08-03T17:25:23;4.25;;;2.22;;
62941;SDS011;49042;47.318;19.874;2022-08-03T17:28:47;6.40;;;2.22;;
62941;SDS011;49042;47.318;19.874;2022-08-03T17:31:58;7.47;;;2.17;;
62941;SDS011;49042;47.318;19.874;2022-08-03T17:35:09;3.30;;;1.80;;
62941;SDS011;49042;47.318;19.874;2022-08-03T17:38:12;3.20;;;2.40;;
62941;SDS011;49042;47.318;19.874;2022-08-03T17:41:20;4.25;;;2.00;;
62941;SDS011;49042;47.318;19.874;2022-08-03T17:44:25;3.35;;;2.00;;
62941;SDS011;49042;47.318;19.874;2022-08-03T17:47:41;4.67;;;2.20;;
62941;SDS011;49042;47.318;19.874;2022-08-03T17:51:06;6.03;;;2.10;;
62941;SDS011;49042;47.318;19.874;2022-08-03T17:54:24;3.65;;;2.12;;
62941;SDS011;49042;47.318;19.874;2022-08-03T17:57:38;9.70;;;2.90;;
62941;SDS011;49042;47.318;19.874;2022-08-03T18:01:03;3.70;;;2.10;;
62941;SDS011;49042;47.318;19.874;2022-08-03T18:04:50;3.05;;;2.17;;
62941;SDS011;49042;47.318;19.874;2022-08-03T18:08:01;4.43;;;2.50;;
62941;SDS011;49042;47.318;19.874;2022-08-03T18:11:13;5.82;;;2.58;;
62941;SDS011;49042;47.318;19.874;2022-08-03T18:18:05;4.55;;;2.47;;
62941;SDS011;49042;47.318;19.874;2022-08-03T18:21:11;12.65;;;2.95;;
62941;SDS011;49042;47.318;19.874;2022-08-03T18:24:17;3.97;;;2.42;;
62941;SDS011;49042;47.318;19.874;2022-08-03T18:27:25;3.65;;;2.97;;
62941;SDS011;49042;47.318;19.874;2022-08-03T18:30:47;4.57;;;3.15;;
62941;SDS011;49042;47.318;19.874;2022-08-03T18:33:55;4.22;;;2.58;;
62941;SDS011;49042;47.318;19.874;2022-08-03T18:37:19;4.50;;;2.70;;
62941;SDS011;49042;47.318;19.874;2022-08-03T18:40:26;4.25;;;2.45;;
62941;SDS011;49042;47.318;19.874;2022-08-03T18:43:28;5.60;;;2.55;;
62941;SDS011;49042;47.318;19.874;2022-08-03T18:49:56;6.12;;;2.70;;
62941;SDS011;49042;47.318;19.874;2022-08-03T18:57:02;4.55;;;2.17;;
62941;SDS011;49042;47.318;19.874;2022-08-03T19:00:05;2.70;;;2.20;;
62941;SDS011;49042;47.318;19.874;2022-08-03T19:03:14;10.55;;;2.47;;
62941;SDS011;49042;47.318;19.874;2022-08-03T19:06:24;2.47;;;2.20;;
62941;SDS011;49042;47.318;19.874;2022-08-03T19:09:36;4.55;;;2.40;;
62941;SDS011;49042;47.318;19.874;2022-08-03T19:12:49;3.33;;;2.33;;
62941;SDS011;49042;47.318;19.874;2022-08-03T19:15:56;5.12;;;2.37;;
62941;SDS011;49042;47.318;19.874;2022-08-03T19:19:01;3.20;;;2.40;;
62941;SDS011;49042;47.318;19.874;2022-08-03T19:22:07;9.88;;;2.70;;